Terminal Aerodrome Forecast
Issued by NWS

Home | Current Version | Previous Version | Text Only | Print | Product List | Glossary On
Versions: 1 2 3 4 5 6 7 8 9 10 11 12 13 14 15 16 17 18 19 20
000
FTUS46 KMFR 271152
TAFOTH
TAF
KOTH 271152Z 2712/2812 18010KT P6SM SCT050 OVC070
     FM271500 18015G20KT P6SM -RA SCT025 OVC035
     FM271800 19010G17KT 6SM -RA BR SCT010 OVC025
     FM280300 18009KT P6SM -SHRA BKN025 OVC040=

USA.gov is the U.S. government's official web portal to all federal, state and local government web resources and services.